Time;durP1;ratioP1;P1;durP2;ratioP2;P2;SDS_P1;SDS_P2;PMS_P1;PMS_P2;Temp;Humidity;BMP_temperature;BMP_pressure;BME280_temperature;BME280_humidity;BME280_pressure;Samples;Min_cycle;Max_cycle;Signal;HPM_P1;HPM_P2
2022/10/19 00:00:01;;;;;;;;;;;;;;;;;;5031370;28;20007;-62
2022/10/19 00:02:30;;;;;;;;;;;;;;;;;;5032471;28;19924;-62
2022/10/19 00:04:55;;;;;;;;;;;;;;;;;;5029305;28;19917;-62
2022/10/19 00:07:20;;;;;;;;;;;;;;;;;;5030727;28;19978;-63
2022/10/19 00:09:45;;;;;;;;;;;;;;;;;;5034341;28;20364;-63
2022/10/19 00:12:11;;;;;;;;;;;;;;;;;;5027315;28;19971;-63
2022/10/19 00:14:36;;;;;;;;;;;;;;;;;;5037977;28;20008;-63
2022/10/19 00:17:02;;;;;;;;;;;;;;;;;;5031419;28;19921;-62
2022/10/19 00:19:27;;;;;;;;;;;;;;;;;;5030366;28;20715;-63
2022/10/19 00:21:52;;;;;;;;;;;;;;;;;;5035107;28;19921;-63
2022/10/19 00:24:18;;;;;;;;;;;;;;;;;;5026820;28;20975;-61
2022/10/19 00:26:43;;;;;;;;;;;;;;;;;;5037518;28;19916;-62
2022/10/19 00:29:08;;;;;;;;;;;;;;;;;;5032942;28;20028;-61
2022/10/19 00:31:33;;;;;;;;;;;;;;;;;;5029803;28;19925;-63
2022/10/19 00:33:58;;;;;;;;;;;;;;;;;;5036694;28;20004;-62
2022/10/19 00:36:24;;;;;;;;;;;;;;;;;;5032198;28;19916;-62
2022/10/19 00:38:49;;;;;;;;;;;;;;;;;;5035761;28;20021;-62
2022/10/19 00:41:14;;;;;;;;;;;;;;;;;;5027229;28;19917;-62
2022/10/19 00:43:39;;;;;;;;;;;;;;;;;;5029466;28;19920;-63
2022/10/19 00:46:04;;;;;;;;;;;;;;;;;;5039227;28;19925;-62
2022/10/19 00:48:30;;;;;;;;;;;;;;;;;;5035300;28;20389;-62
2022/10/19 00:50:55;;;;;;;;;;;;;;;;;;5038890;28;19916;-64
2022/10/19 00:53:20;;;;;;;;;;;;;;;;;;5033816;28;19948;-63
2022/10/19 00:55:45;;;;;;;;;;;;;;;;;;5034700;28;19912;-64
2022/10/19 00:58:10;;;;;;;;;;;;;;;;;;5040080;28;20292;-62
2022/10/19 01:00:36;;;;;;;;;;;;;;;;;;5034273;28;19964;-63
2022/10/19 01:03:01;;;;;;;;;;;;;;;;;;5041542;28;19940;-62
2022/10/19 01:05:26;;;;;;;;;;;;;;;;;;5035607;28;19924;-62
2022/10/19 01:07:51;;;;;;;;;;;;;;;;;;5034513;28;19932;-62
2022/10/19 01:10:16;;;;;;;;;;;;;;;;;;5039566;28;19952;-62
2022/10/19 01:12:41;;;;;;;;;;;;;;;;;;5035085;28;20642;-63
2022/10/19 01:15:07;;;;;;;;;;;;;;;;;;5040797;28;19979;-63
2022/10/19 01:17:32;;;;;;;;;;;;;;;;;;5034109;28;19991;-64
2022/10/19 01:19:57;;;;;;;;;;;;;;;;;;5035217;28;19923;-62
2022/10/19 01:22:22;;;;;;;;;;;;;;;;;;5039328;28;20027;-63
2022/10/19 01:24:48;;;;;;;;;;;;;;;;;;5033640;28;19960;-63
2022/10/19 01:27:13;;;;;;;;;;;;;;;;;;5039236;28;19916;-63
2022/10/19 01:29:38;;;;;;;;;;;;;;;;;;5030770;28;19917;-63
2022/10/19 01:32:03;;;;;;;;;;;;;;;;;;5032101;28;19975;-62
2022/10/19 01:34:28;;;;;;;;;;;;;;;;;;5039797;28;19921;-62
2022/10/19 01:36:53;;;;;;;;;;;;;;;;;;5031886;28;20439;-63
2022/10/19 01:39:19;;;;;;;;;;;;;;;;;;5040127;28;19921;-62
2022/10/19 01:41:44;;;;;;;;;;;;;;;;;;5031232;28;19931;-63
2022/10/19 01:44:09;;;;;;;;;;;;;;;;;;5034169;28;19927;-62
2022/10/19 01:46:34;;;;;;;;;;;;;;;;;;5037683;28;19923;-62
2022/10/19 01:48:59;;;;;;;;;;;;;;;;;;5033764;28;19944;-62
2022/10/19 01:51:25;;;;;;;;;;;;;;;;;;5037807;28;20361;-63
2022/10/19 01:53:50;;;;;;;;;;;;;;;;;;5032282;28;19917;-62
2022/10/19 01:56:15;;;;;;;;;;;;;;;;;;5033692;28;20141;-63
2022/10/19 01:58:40;;;;;;;;;;;;;;;;;;5037864;28;20603;-63
2022/10/19 02:01:05;;;;;;;;;;;;;;;;;;5033997;28;20004;-62
2022/10/19 02:03:30;;;;;;;;;;;;;;;;;;5036485;28;19966;-63
2022/10/19 02:05:56;;;;;;;;;;;;;;;;;;5030537;28;20274;-62
2022/10/19 02:08:21;;;;;;;;;;;;;;;;;;5034407;28;19921;-61
2022/10/19 02:10:46;;;;;;;;;;;;;;;;;;5039432;28;20519;-61
2022/10/19 02:13:11;;;;;;;;;;;;;;;;;;5030413;28;20031;-62
2022/10/19 02:15:36;;;;;;;;;;;;;;;;;;5037597;28;19917;-62
2022/10/19 02:18:02;;;;;;;;;;;;;;;;;;5032066;28;20032;-61
2022/10/19 02:20:27;;;;;;;;;;;;;;;;;;5031684;28;19923;-61
2022/10/19 02:22:52;;;;;;;;;;;;;;;;;;5037080;28;19924;-61
2022/10/19 02:25:17;;;;;;;;;;;;;;;;;;5033743;28;19917;-62
2022/10/19 02:27:42;;;;;;;;;;;;;;;;;;5037045;28;19924;-61
2022/10/19 02:30:08;;;;;;;;;;;;;;;;;;5032390;28;19942;-62
2022/10/19 02:32:33;;;;;;;;;;;;;;;;;;5032091;28;19929;-61
2022/10/19 02:34:58;;;;;;;;;;;;;;;;;;5038078;28;20002;-62
2022/10/19 02:37:23;;;;;;;;;;;;;;;;;;5030838;28;20361;-62
2022/10/19 02:39:48;;;;;;;;;;;;;;;;;;5036095;28;20057;-64
2022/10/19 02:42:13;;;;;;;;;;;;;;;;;;5034235;28;19921;-62
2022/10/19 02:44:39;;;;;;;;;;;;;;;;;;5032588;28;19916;-62
2022/10/19 02:47:04;;;;;;;;;;;;;;;;;;5037420;28;19923;-62
2022/10/19 02:49:29;;;;;;;;;;;;;;;;;;5034412;28;20316;-62
2022/10/19 02:51:54;;;;;;;;;;;;;;;;;;5037814;28;19972;-62
2022/10/19 02:54:19;;;;;;;;;;;;;;;;;;5033672;28;19970;-62
2022/10/19 02:56:45;;;;;;;;;;;;;;;;;;5031961;28;19944;-62
2022/10/19 02:59:10;;;;;;;;;;;;;;;;;;5038670;28;19964;-62
2022/10/19 03:01:35;;;;;;;;;;;;;;;;;;5031639;28;20438;-61
2022/10/19 03:04:00;;;;;;;;;;;;;;;;;;5038461;28;19917;-62
2022/10/19 03:06:25;;;;;;;;;;;;;;;;;;5030269;28;19952;-61
2022/10/19 03:08:50;;;;;;;;;;;;;;;;;;5029999;28;19929;-62
2022/10/19 03:11:16;;;;;;;;;;;;;;;;;;5035443;28;19917;-62
2022/10/19 03:13:42;;;;;;;;;;;;;;;;;;5030490;28;21252;-62
2022/10/19 03:16:07;;;;;;;;;;;;;;;;;;5037662;28;19955;-62
2022/10/19 03:18:32;;;;;;;;;;;;;;;;;;5032006;28;20369;-62
2022/10/19 03:20:57;;;;;;;;;;;;;;;;;;5029116;28;19921;-62
2022/10/19 03:23:22;;;;;;;;;;;;;;;;;;5037387;28;19916;-62
2022/10/19 03:25:48;;;;;;;;;;;;;;;;;;5030619;28;19932;-61
2022/10/19 03:28:13;;;;;;;;;;;;;;;;;;5037381;28;19917;-62
2022/10/19 03:30:38;;;;;;;;;;;;;;;;;;5032913;28;19928;-62
2022/10/19 03:33:03;;;;;;;;;;;;;;;;;;5029625;28;19924;-62
2022/10/19 03:35:28;;;;;;;;;;;;;;;;;;5038801;28;20425;-61
2022/10/19 03:37:53;;;;;;;;;;;;;;;;;;5029976;28;19917;-62
2022/10/19 03:40:19;;;;;;;;;;;;;;;;;;5037693;28;19917;-61
2022/10/19 03:42:44;;;;;;;;;;;;;;;;;;5034551;28;20285;-61
2022/10/19 03:45:09;;;;;;;;;;;;;;;;;;5029853;28;19924;-61
2022/10/19 03:47:34;;;;;;;;;;;;;;;;;;5038242;28;20119;-61
2022/10/19 03:49:59;;;;;;;;;;;;;;;;;;5026683;28;19982;-61
2022/10/19 03:52:25;;;;;;;;;;;;;;;;;;5036726;28;20404;-61
2022/10/19 03:54:50;;;;;;;;;;;;;;;;;;5030006;28;19956;-63
2022/10/19 03:57:15;;;;;;;;;;;;;;;;;;5032369;28;19916;-62
2022/10/19 03:59:40;;;;;;;;;;;;;;;;;;5035763;28;19925;-61
2022/10/19 04:02:05;;;;;;;;;;;;;;;;;;5027813;28;19913;-62
2022/10/19 04:04:31;;;;;;;;;;;;;;;;;;5032851;28;20314;-61
2022/10/19 04:06:56;;;;;;;;;;;;;;;;;;5030255;28;19916;-62
2022/10/19 04:09:21;;;;;;;;;;;;;;;;;;5024244;28;19921;-63
2022/10/19 04:11:46;;;;;;;;;;;;;;;;;;5040599;28;19929;-62
2022/10/19 04:14:11;;;;;;;;;;;;;;;;;;5032281;28;19996;-62
2022/10/19 04:16:36;;;;;;;;;;;;;;;;;;5038755;28;19920;-61
2022/10/19 04:19:02;;;;;;;;;;;;;;;;;;5033167;28;20270;-62
2022/10/19 04:21:27;;;;;;;;;;;;;;;;;;5032513;28;19956;-61
2022/10/19 04:23:52;;;;;;;;;;;;;;;;;;5037052;28;19917;-60
2022/10/19 04:26:17;;;;;;;;;;;;;;;;;;5032918;28;19955;-63
2022/10/19 04:28:42;;;;;;;;;;;;;;;;;;5038144;28;19924;-63
2022/10/19 04:31:08;;;;;;;;;;;;;;;;;;5032627;28;20368;-62
2022/10/19 04:33:33;;;;;;;;;;;;;;;;;;5033017;28;19927;-59
2022/10/19 04:35:58;;;;;;;;;;;;;;;;;;5040210;28;20596;-60
2022/10/19 04:38:23;;;;;;;;;;;;;;;;;;5032585;28;19917;-63
2022/10/19 04:40:49;;;;;;;;;;;;;;;;;;5040151;28;20297;-61
2022/10/19 04:43:14;;;;;;;;;;;;;;;;;;5031222;28;19978;-61
2022/10/19 04:45:39;;;;;;;;;;;;;;;;;;5032724;28;19917;-60
2022/10/19 04:48:04;;;;;;;;;;;;;;;;;;5038534;28;20590;-61
2022/10/19 04:50:29;;;;;;;;;;;;;;;;;;5031749;28;19942;-62
2022/10/19 04:52:55;;;;;;;;;;;;;;;;;;5038036;28;19925;-61
2022/10/19 04:55:20;;;;;;;;;;;;;;;;;;5032850;28;19917;-62
2022/10/19 04:57:45;;;;;;;;;;;;;;;;;;5032497;28;19916;-61
2022/10/19 05:00:10;;;;;;;;;;;;;;;;;;5040528;28;20015;-62
2022/10/19 05:02:35;;;;;;;;;;;;;;;;;;5030694;28;19923;-61
2022/10/19 05:05:00;;;;;;;;;;;;;;;;;;5037596;28;19948;-62
2022/10/19 05:07:28;;;;;;;;;;;;;;;;;;5032938;28;19924;-62
2022/10/19 05:09:54;;;;;;;;;;;;;;;;;;5031369;28;19920;-60
2022/10/19 05:12:19;;;;;;;;;;;;;;;;;;5038760;28;19982;-61
2022/10/19 05:14:44;;;;;;;;;;;;;;;;;;5030013;28;20020;-62
2022/10/19 05:17:09;;;;;;;;;;;;;;;;;;5036728;28;20445;-62
2022/10/19 05:19:35;;;;;;;;;;;;;;;;;;5031259;28;19924;-62
2022/10/19 05:22:00;;;;;;;;;;;;;;;;;;5030431;28;19917;-61
2022/10/19 05:24:25;;;;;;;;;;;;;;;;;;5037766;28;20277;-61
2022/10/19 05:26:50;;;;;;;;;;;;;;;;;;5018217;28;19975;-61
2022/10/19 05:29:15;;;;;;;;;;;;;;;;;;5039774;28;19916;-63
2022/10/19 05:31:41;;;;;;;;;;;;;;;;;;5034706;28;19970;-62
2022/10/19 05:34:06;;;;;;;;;;;;;;;;;;5035735;28;19921;-60
2022/10/19 05:36:33;;;;;;;;;;;;;;;;;;5042275;28;20409;-62
2022/10/19 05:38:58;;;;;;;;;;;;;;;;;;5037289;28;19970;-61
2022/10/19 05:41:23;;;;;;;;;;;;;;;;;;5040251;28;19917;-61
2022/10/19 05:43:48;;;;;;;;;;;;;;;;;;5039022;28;21467;-61
2022/10/19 05:46:14;;;;;;;;;;;;;;;;;;5034707;28;19917;-61
2022/10/19 05:48:39;;;;;;;;;;;;;;;;;;5024194;28;19932;-62
2022/10/19 05:51:04;;;;;;;;;;;;;;;;;;5015793;28;19936;-60
2022/10/19 05:53:29;;;;;;;;;;;;;;;;;;5021667;28;19976;-61
2022/10/19 05:55:54;;;;;;;;;;;;;;;;;;5038357;28;19924;-61
2022/10/19 05:58:20;;;;;;;;;;;;;;;;;;5038235;28;19917;-61
2022/10/19 06:00:45;;;;;;;;;;;;;;;;;;5041968;28;20003;-62
2022/10/19 06:03:10;;;;;;;;;;;;;;;;;;5024977;28;20408;-62
2022/10/19 06:05:35;;;;;;;;;;;;;;;;;;5040096;28;20010;-63
2022/10/19 06:08:00;;;;;;;;;;;;;;;;;;5033561;28;19924;-64
2022/10/19 06:10:25;;;;;;;;;;;;;;;;;;5032592;28;19920;-62
2022/10/19 06:12:51;;;;;;;;;;;;;;;;;;5036695;28;20340;-63
2022/10/19 06:15:16;;;;;;;;;;;;;;;;;;5035221;28;19916;-62
2022/10/19 06:17:41;;;;;;;;;;;;;;;;;;5039995;28;20004;-62
2022/10/19 06:20:06;;;;;;;;;;;;;;;;;;5035690;28;19924;-61
2022/10/19 06:22:32;;;;;;;;;;;;;;;;;;5033682;28;19964;-61
2022/10/19 06:24:57;;;;;;;;;;;;;;;;;;5041229;28;19978;-61
2022/10/19 06:27:22;;;;;;;;;;;;;;;;;;5033416;28;19917;-62
2022/10/19 06:29:47;;;;;;;;;;;;;;;;;;5035848;28;19995;-61
2022/10/19 06:32:12;;;;;;;;;;;;;;;;;;5035535;28;20369;-60
2022/10/19 06:34:38;;;;;;;;;;;;;;;;;;5037953;28;19956;-62
2022/10/19 06:37:03;;;;;;;;;;;;;;;;;;5038409;28;19994;-61
2022/10/19 06:39:28;;;;;;;;;;;;;;;;;;5044859;28;19912;-62
2022/10/19 06:41:53;;;;;;;;;;;;;;;;;;5043260;28;19948;-62
2022/10/19 06:44:18;;;;;;;;;;;;;;;;;;5043391;28;19927;-63
2022/10/19 06:46:44;;;;;;;;;;;;;;;;;;5044394;28;19939;-61
2022/10/19 06:49:09;;;;;;;;;;;;;;;;;;5042617;28;20040;-62
2022/10/19 06:51:34;;;;;;;;;;;;;;;;;;5044997;28;19925;-62
2022/10/19 06:53:59;;;;;;;;;;;;;;;;;;5042046;28;19944;-61
2022/10/19 06:56:24;;;;;;;;;;;;;;;;;;5044142;28;20373;-62
2022/10/19 06:58:50;;;;;;;;;;;;;;;;;;5044422;28;20997;-62
2022/10/19 07:01:15;;;;;;;;;;;;;;;;;;5043689;28;20514;-61
2022/10/19 07:03:42;;;;;;;;;;;;;;;;;;5044598;28;19916;-62
2022/10/19 07:06:07;;;;;;;;;;;;;;;;;;5044512;28;19924;-61
2022/10/19 07:08:32;;;;;;;;;;;;;;;;;;5042648;28;19916;-61
2022/10/19 07:10:57;;;;;;;;;;;;;;;;;;5043107;28;19916;-62
2022/10/19 07:13:22;;;;;;;;;;;;;;;;;;5044772;28;20690;-61
2022/10/19 07:15:47;;;;;;;;;;;;;;;;;;5042038;28;19974;-62
2022/10/19 07:18:13;;;;;;;;;;;;;;;;;;5043954;28;19912;-62
2022/10/19 07:20:38;;;;;;;;;;;;;;;;;;5043527;28;19964;-63
2022/10/19 07:23:03;;;;;;;;;;;;;;;;;;5043056;28;19924;-62
2022/10/19 07:25:29;;;;;;;;;;;;;;;;;;5044603;28;19917;-61
2022/10/19 07:27:54;;;;;;;;;;;;;;;;;;5045114;28;19917;-62
2022/10/19 07:30:19;;;;;;;;;;;;;;;;;;5043319;28;20319;-63
2022/10/19 07:32:45;;;;;;;;;;;;;;;;;;5043560;28;19925;-62
2022/10/19 07:35:10;;;;;;;;;;;;;;;;;;5043187;28;19921;-62
2022/10/19 07:37:35;;;;;;;;;;;;;;;;;;5043829;28;20007;-63
2022/10/19 07:40:00;;;;;;;;;;;;;;;;;;5042918;28;20312;-62
2022/10/19 07:42:25;;;;;;;;;;;;;;;;;;5044262;28;20335;-62
2022/10/19 07:44:51;;;;;;;;;;;;;;;;;;5043183;28;20439;-61
2022/10/19 07:47:16;;;;;;;;;;;;;;;;;;5043895;28;19963;-62
2022/10/19 07:49:41;;;;;;;;;;;;;;;;;;5043964;28;20361;-62
2022/10/19 07:52:06;;;;;;;;;;;;;;;;;;5039964;28;19979;-62
2022/10/19 07:54:31;;;;;;;;;;;;;;;;;;5042674;28;19916;-63
2022/10/19 07:56:57;;;;;;;;;;;;;;;;;;5043382;28;19924;-62
2022/10/19 07:59:22;;;;;;;;;;;;;;;;;;5042804;28;19957;-62
2022/10/19 08:01:47;;;;;;;;;;;;;;;;;;5043384;28;20017;-61
2022/10/19 08:04:12;;;;;;;;;;;;;;;;;;5043590;28;19923;-63
2022/10/19 08:06:38;;;;;;;;;;;;;;;;;;5043699;28;20387;-63
2022/10/19 08:09:03;;;;;;;;;;;;;;;;;;5042405;28;19916;-62
2022/10/19 08:11:31;;;;;;;;;;;;;;;;;;5041073;28;20225;-62
2022/10/19 08:13:58;;;;;;;;;;;;;;;;;;5031877;28;21486;-62
2022/10/19 08:16:23;;;;;;;;;;;;;;;;;;5041933;28;19917;-62
2022/10/19 08:18:48;;;;;;;;;;;;;;;;;;5041446;28;20292;-59
2022/10/19 08:21:14;;;;;;;;;;;;;;;;;;5042160;28;20258;-63
2022/10/19 08:23:40;;;;;;;;;;;;;;;;;;5041997;28;19928;-62
2022/10/19 08:26:05;;;;;;;;;;;;;;;;;;5041880;28;19916;-61
2022/10/19 08:28:30;;;;;;;;;;;;;;;;;;5043422;28;19924;-63
2022/10/19 08:30:57;;;;;;;;;;;;;;;;;;5041562;28;19913;-61
2022/10/19 08:33:22;;;;;;;;;;;;;;;;;;5042055;28;19935;-62
2022/10/19 08:35:48;;;;;;;;;;;;;;;;;;5042706;28;19916;-63
2022/10/19 08:38:13;;;;;;;;;;;;;;;;;;5041693;28;21063;-62
2022/10/19 08:40:38;;;;;;;;;;;;;;;;;;5042257;28;19917;-62
2022/10/19 08:43:03;;;;;;;;;;;;;;;;;;5041448;28;20439;-63
2022/10/19 08:45:28;;;;;;;;;;;;;;;;;;5041976;28;19963;-64
2022/10/19 08:47:54;;;;;;;;;;;;;;;;;;5042133;28;19959;-62
2022/10/19 08:50:19;;;;;;;;;;;;;;;;;;5040880;28;19920;-63
2022/10/19 08:52:44;;;;;;;;;;;;;;;;;;5041580;28;19925;-62
2022/10/19 08:55:10;;;;;;;;;;;;;;;;;;5041573;28;20008;-62
2022/10/19 08:57:35;;;;;;;;;;;;;;;;;;5042533;28;20281;-62
2022/10/19 09:00:00;;;;;;;;;;;;;;;;;;5041316;28;20316;-62
2022/10/19 09:02:25;;;;;;;;;;;;;;;;;;5041881;28;19955;-63
2022/10/19 09:04:50;;;;;;;;;;;;;;;;;;5041232;28;19924;-63
2022/10/19 09:07:16;;;;;;;;;;;;;;;;;;5046724;28;20510;-62
2022/10/19 09:09:41;;;;;;;;;;;;;;;;;;5045234;28;19921;-62
2022/10/19 09:12:06;;;;;;;;;;;;;;;;;;5042824;28;19925;-63
2022/10/19 09:14:31;;;;;;;;;;;;;;;;;;5044729;28;20008;-62
2022/10/19 09:16:56;;;;;;;;;;;;;;;;;;5043002;28;19918;-62
2022/10/19 09:19:24;;;;;;;;;;;;;;;;;;5045017;28;19923;-62
2022/10/19 09:21:49;;;;;;;;;;;;;;;;;;5045730;28;20054;-62
2022/10/19 09:24:14;;;;;;;;;;;;;;;;;;5045998;28;19921;-62
2022/10/19 09:26:40;;;;;;;;;;;;;;;;;;5045879;28;20277;-62
2022/10/19 09:29:05;;;;;;;;;;;;;;;;;;5047183;28;19917;-63
2022/10/19 09:31:30;;;;;;;;;;;;;;;;;;5045275;28;19928;-63
2022/10/19 09:33:55;;;;;;;;;;;;;;;;;;5044324;28;19916;-62
2022/10/19 09:36:20;;;;;;;;;;;;;;;;;;5045325;28;19924;-62
2022/10/19 09:38:46;;;;;;;;;;;;;;;;;;5045979;28;19916;-62
2022/10/19 09:41:11;;;;;;;;;;;;;;;;;;5045755;28;20419;-61
2022/10/19 09:43:36;;;;;;;;;;;;;;;;;;5044532;28;20429;-62
2022/10/19 09:46:01;;;;;;;;;;;;;;;;;;5044066;28;19987;-62
2022/10/19 09:48:26;;;;;;;;;;;;;;;;;;5045451;28;20015;-62
2022/10/19 09:50:52;;;;;;;;;;;;;;;;;;5043550;28;19917;-62
2022/10/19 09:53:17;;;;;;;;;;;;;;;;;;5045317;28;19931;-62
2022/10/19 09:55:42;;;;;;;;;;;;;;;;;;5046454;28;19913;-61
2022/10/19 09:58:07;;;;;;;;;;;;;;;;;;5045815;28;19917;-62
2022/10/19 10:00:32;;;;;;;;;;;;;;;;;;5042593;28;20331;-62
2022/10/19 10:02:57;;;;;;;;;;;;;;;;;;5040577;28;19917;-62
2022/10/19 10:05:23;;;;;;;;;;;;;;;;;;5044231;28;19917;-62
2022/10/19 10:07:48;;;;;;;;;;;;;;;;;;5044541;28;20015;-62
2022/10/19 10:10:13;;;;;;;;;;;;;;;;;;5044593;28;19917;-61
2022/10/19 10:12:38;;;;;;;;;;;;;;;;;;5044497;28;20464;-62
2022/10/19 10:15:03;;;;;;;;;;;;;;;;;;5044660;28;19916;-61
2022/10/19 10:17:29;;;;;;;;;;;;;;;;;;5044453;28;19962;-61
2022/10/19 10:19:54;;;;;;;;;;;;;;;;;;5043157;28;19928;-61
2022/10/19 10:22:19;;;;;;;;;;;;;;;;;;5045789;28;20015;-61
2022/10/19 10:24:44;;;;;;;;;;;;;;;;;;5044614;28;19927;-62
2022/10/19 10:27:09;;;;;;;;;;;;;;;;;;5045225;28;20043;-62
2022/10/19 10:29:35;;;;;;;;;;;;;;;;;;5044328;28;20076;-62
2022/10/19 10:32:00;;;;;;;;;;;;;;;;;;5043992;28;19928;-62
2022/10/19 10:34:25;;;;;;;;;;;;;;;;;;5043998;28;19999;-62
2022/10/19 10:36:50;;;;;;;;;;;;;;;;;;5044657;28;19917;-62
2022/10/19 10:39:15;;;;;;;;;;;;;;;;;;5046166;28;19995;-62
2022/10/19 10:41:41;;;;;;;;;;;;;;;;;;5044718;28;19913;-62
2022/10/19 10:44:06;;;;;;;;;;;;;;;;;;5043838;28;19916;-61
2022/10/19 10:46:31;;;;;;;;;;;;;;;;;;5045915;28;19919;-62
2022/10/19 10:48:56;;;;;;;;;;;;;;;;;;5043970;28;19917;-62
2022/10/19 10:51:21;;;;;;;;;;;;;;;;;;5043984;28;20440;-62
2022/10/19 10:53:47;;;;;;;;;;;;;;;;;;5044377;28;20399;-62
2022/10/19 10:56:12;;;;;;;;;;;;;;;;;;5044723;28;20312;-61
2022/10/19 10:58:37;;;;;;;;;;;;;;;;;;5044312;28;20557;-62
2022/10/19 11:01:02;;;;;;;;;;;;;;;;;;5044818;28;19999;-62
2022/10/19 11:03:28;;;;;;;;;;;;;;;;;;5041849;28;19966;-61
2022/10/19 11:05:53;;;;;;;;;;;;;;;;;;5045250;28;19917;-61
2022/10/19 11:08:18;;;;;;;;;;;;;;;;;;5045050;28;20450;-62
2022/10/19 11:10:43;;;;;;;;;;;;;;;;;;5046205;28;19966;-62
2022/10/19 11:13:08;;;;;;;;;;;;;;;;;;5045612;28;19955;-63
2022/10/19 11:15:34;;;;;;;;;;;;;;;;;;5046943;28;19921;-63
2022/10/19 11:17:59;;;;;;;;;;;;;;;;;;5044497;28;19986;-62
2022/10/19 11:20:24;;;;;;;;;;;;;;;;;;5045290;28;19920;-62
2022/10/19 11:22:49;;;;;;;;;;;;;;;;;;5046424;28;19916;-62
2022/10/19 11:25:14;;;;;;;;;;;;;;;;;;5046178;28;19919;-62
2022/10/19 11:27:39;;;;;;;;;;;;;;;;;;5046380;28;20403;-62
2022/10/19 11:30:05;;;;;;;;;;;;;;;;;;5044605;28;20036;-61
2022/10/19 11:32:30;;;;;;;;;;;;;;;;;;5043443;28;19936;-63
2022/10/19 11:34:55;;;;;;;;;;;;;;;;;;5034908;28;20251;-62
2022/10/19 11:37:20;;;;;;;;;;;;;;;;;;5046192;28;20445;-62
2022/10/19 11:39:45;;;;;;;;;;;;;;;;;;5045596;28;19924;-62
2022/10/19 11:42:11;;;;;;;;;;;;;;;;;;5045710;28;19921;-64
2022/10/19 11:44:36;;;;;;;;;;;;;;;;;;5046974;28;20262;-61
2022/10/19 11:47:01;;;;;;;;;;;;;;;;;;5046233;28;20302;-61
2022/10/19 11:49:26;;;;;;;;;;;;;;;;;;5044456;28;19958;-62
2022/10/19 11:51:52;;;;;;;;;;;;;;;;;;5045253;28;19924;-61
2022/10/19 11:54:17;;;;;;;;;;;;;;;;;;5044385;28;19917;-61
2022/10/19 11:56:42;;;;;;;;;;;;;;;;;;5045518;28;20421;-61
2022/10/19 11:59:07;;;;;;;;;;;;;;;;;;5044899;28;19924;-61
2022/10/19 12:01:33;;;;;;;;;;;;;;;;;;5044711;28;19935;-61
2022/10/19 12:03:58;;;;;;;;;;;;;;;;;;5044981;28;19963;-62
2022/10/19 12:06:23;;;;;;;;;;;;;;;;;;5044100;28;20027;-62
2022/10/19 12:08:48;;;;;;;;;;;;;;;;;;5044387;28;19920;-62
2022/10/19 12:11:15;;;;;;;;;;;;;;;;;;5044171;28;19955;-62
2022/10/19 12:13:40;;;;;;;;;;;;;;;;;;5045048;28;19929;-62
2022/10/19 12:16:06;;;;;;;;;;;;;;;;;;5045246;28;19924;-62
2022/10/19 12:18:31;;;;;;;;;;;;;;;;;;5044109;28;20004;-63
2022/10/19 12:20:56;;;;;;;;;;;;;;;;;;5045027;28;19931;-62
2022/10/19 12:23:21;;;;;;;;;;;;;;;;;;5044891;28;19917;-62
2022/10/19 12:25:46;;;;;;;;;;;;;;;;;;5045178;28;19921;-62
2022/10/19 12:28:12;;;;;;;;;;;;;;;;;;5044877;28;19913;-63
2022/10/19 12:30:37;;;;;;;;;;;;;;;;;;5044745;28;19917;-63
2022/10/19 12:33:02;;;;;;;;;;;;;;;;;;5044908;28;19930;-63
2022/10/19 12:35:27;;;;;;;;;;;;;;;;;;5044156;28;20425;-63
2022/10/19 12:37:52;;;;;;;;;;;;;;;;;;5043725;28;19917;-62
2022/10/19 12:40:17;;;;;;;;;;;;;;;;;;5047093;28;20710;-62
2022/10/19 12:42:43;;;;;;;;;;;;;;;;;;5049191;28;19920;-63
2022/10/19 12:45:08;;;;;;;;;;;;;;;;;;5046884;28;20376;-62
2022/10/19 12:47:33;;;;;;;;;;;;;;;;;;5049034;28;19919;-62
2022/10/19 12:49:58;;;;;;;;;;;;;;;;;;5048634;28;19923;-62
2022/10/19 12:52:24;;;;;;;;;;;;;;;;;;5047813;28;20127;-62
2022/10/19 12:54:49;;;;;;;;;;;;;;;;;;5049153;28;19916;-62
2022/10/19 12:57:14;;;;;;;;;;;;;;;;;;5048848;28;19917;-62
2022/10/19 12:59:39;;;;;;;;;;;;;;;;;;5046232;28;20297;-62
2022/10/19 13:02:04;;;;;;;;;;;;;;;;;;5048535;28;19916;-62
2022/10/19 13:04:30;;;;;;;;;;;;;;;;;;5045513;28;20155;-62
2022/10/19 13:06:55;;;;;;;;;;;;;;;;;;5048181;28;19917;-63
2022/10/19 13:09:20;;;;;;;;;;;;;;;;;;5048632;28;19931;-62
2022/10/19 13:11:45;;;;;;;;;;;;;;;;;;5048000;28;20003;-62
2022/10/19 13:14:10;;;;;;;;;;;;;;;;;;5048502;28;19920;-62
2022/10/19 13:16:36;;;;;;;;;;;;;;;;;;5048330;28;19916;-63
2022/10/19 13:19:01;;;;;;;;;;;;;;;;;;5048479;28;19921;-63
2022/10/19 13:21:26;;;;;;;;;;;;;;;;;;5047472;28;20476;-62
2022/10/19 13:23:51;;;;;;;;;;;;;;;;;;5047185;28;20011;-62
2022/10/19 13:26:16;;;;;;;;;;;;;;;;;;5048022;28;19916;-62
2022/10/19 13:28:41;;;;;;;;;;;;;;;;;;5047816;28;20362;-62
2022/10/19 13:31:07;;;;;;;;;;;;;;;;;;5047307;28;19912;-62
2022/10/19 13:33:32;;;;;;;;;;;;;;;;;;5047289;28;19924;-62
2022/10/19 13:35:57;;;;;;;;;;;;;;;;;;5046614;28;19917;-62
2022/10/19 13:38:24;;;;;;;;;;;;;;;;;;5047559;28;19917;-62
2022/10/19 13:40:50;;;;;;;;;;;;;;;;;;5047648;28;20745;-61
2022/10/19 13:43:15;;;;;;;;;;;;;;;;;;5047212;28;19923;-61
2022/10/19 13:45:40;;;;;;;;;;;;;;;;;;5047198;28;20502;-61
2022/10/19 13:48:05;;;;;;;;;;;;;;;;;;5038287;28;20491;-62
2022/10/19 13:50:30;;;;;;;;;;;;;;;;;;5043432;28;19920;-62
2022/10/19 13:52:56;;;;;;;;;;;;;;;;;;5043780;28;20357;-61
2022/10/19 13:55:21;;;;;;;;;;;;;;;;;;5046109;28;19928;-61
2022/10/19 13:57:46;;;;;;;;;;;;;;;;;;5044539;28;19981;-62
2022/10/19 14:00:11;;;;;;;;;;;;;;;;;;5045343;28;19924;-61
2022/10/19 14:02:36;;;;;;;;;;;;;;;;;;5046037;28;20340;-62
2022/10/19 14:05:02;;;;;;;;;;;;;;;;;;5044527;28;19995;-62
2022/10/19 14:07:27;;;;;;;;;;;;;;;;;;5046432;28;20384;-61
2022/10/19 14:09:52;;;;;;;;;;;;;;;;;;5044986;28;20013;-63
2022/10/19 14:12:17;;;;;;;;;;;;;;;;;;5044928;28;19924;-62
2022/10/19 14:14:42;;;;;;;;;;;;;;;;;;5045594;28;19923;-62
2022/10/19 14:17:08;;;;;;;;;;;;;;;;;;5045085;28;19923;-61
2022/10/19 14:19:33;;;;;;;;;;;;;;;;;;5045214;28;20019;-62
2022/10/19 14:21:58;;;;;;;;;;;;;;;;;;5044534;28;19988;-62
2022/10/19 14:24:23;;;;;;;;;;;;;;;;;;5043079;28;19917;-61
2022/10/19 14:26:48;;;;;;;;;;;;;;;;;;5043245;28;19917;-62
2022/10/19 14:29:14;;;;;;;;;;;;;;;;;;5042552;28;19921;-63
2022/10/19 14:31:39;;;;;;;;;;;;;;;;;;5043834;28;20516;-62
2022/10/19 14:34:04;;;;;;;;;;;;;;;;;;5042209;28;19952;-63
2022/10/19 14:36:30;;;;;;;;;;;;;;;;;;5044006;28;20404;-63
2022/10/19 14:38:55;;;;;;;;;;;;;;;;;;5042537;28;20377;-62
2022/10/19 14:41:20;;;;;;;;;;;;;;;;;;5044591;28;19920;-63
2022/10/19 14:43:45;;;;;;;;;;;;;;;;;;5042939;28;19923;-63
2022/10/19 14:46:11;;;;;;;;;;;;;;;;;;5045223;28;20428;-63
2022/10/19 14:48:36;;;;;;;;;;;;;;;;;;5043826;28;19920;-62
2022/10/19 14:51:01;;;;;;;;;;;;;;;;;;5043165;28;20015;-63
2022/10/19 14:53:26;;;;;;;;;;;;;;;;;;5044834;28;19932;-61
2022/10/19 14:55:51;;;;;;;;;;;;;;;;;;5044161;28;19916;-62
2022/10/19 14:58:16;;;;;;;;;;;;;;;;;;5044429;28;20096;-63
2022/10/19 15:00:42;;;;;;;;;;;;;;;;;;5044491;28;19917;-63
2022/10/19 15:03:07;;;;;;;;;;;;;;;;;;5041009;28;19968;-62
2022/10/19 15:05:32;;;;;;;;;;;;;;;;;;5043201;28;19951;-62
2022/10/19 15:07:57;;;;;;;;;;;;;;;;;;5045400;28;20290;-62
2022/10/19 15:10:22;;;;;;;;;;;;;;;;;;5043394;28;19921;-61
2022/10/19 15:12:49;;;;;;;;;;;;;;;;;;5042738;28;20006;-61
2022/10/19 15:15:14;;;;;;;;;;;;;;;;;;5042704;28;19916;-62
2022/10/19 15:17:39;;;;;;;;;;;;;;;;;;5042711;28;19924;-62
2022/10/19 15:20:04;;;;;;;;;;;;;;;;;;5043502;28;19916;-62
2022/10/19 15:22:29;;;;;;;;;;;;;;;;;;5043227;28;19917;-61
2022/10/19 15:24:55;;;;;;;;;;;;;;;;;;5042163;28;19920;-62
2022/10/19 15:27:20;;;;;;;;;;;;;;;;;;5043554;28;19917;-63
2022/10/19 15:29:45;;;;;;;;;;;;;;;;;;5043828;28;19935;-62
2022/10/19 15:32:10;;;;;;;;;;;;;;;;;;5041896;28;19929;-62
2022/10/19 15:34:35;;;;;;;;;;;;;;;;;;5043854;28;19916;-63
2022/10/19 15:37:02;;;;;;;;;;;;;;;;;;5044542;28;19963;-62
2022/10/19 15:39:27;;;;;;;;;;;;;;;;;;5043214;28;20308;-63
2022/10/19 15:41:52;;;;;;;;;;;;;;;;;;5043947;28;19917;-62
2022/10/19 15:44:17;;;;;;;;;;;;;;;;;;5042461;28;19916;-62
2022/10/19 15:46:42;;;;;;;;;;;;;;;;;;5044440;28;19978;-62
2022/10/19 15:49:07;;;;;;;;;;;;;;;;;;5041931;28;19924;-61
2022/10/19 15:51:33;;;;;;;;;;;;;;;;;;5042803;28;19924;-62
2022/10/19 15:53:58;;;;;;;;;;;;;;;;;;5044745;28;19977;-62
2022/10/19 15:56:23;;;;;;;;;;;;;;;;;;5042960;28;20077;-63
2022/10/19 15:58:48;;;;;;;;;;;;;;;;;;5043676;28;19916;-62
2022/10/19 16:01:14;;;;;;;;;;;;;;;;;;5042742;28;20007;-62
2022/10/19 16:03:39;;;;;;;;;;;;;;;;;;5040665;28;20266;-61
2022/10/19 16:06:04;;;;;;;;;;;;;;;;;;5041360;28;19923;-62
2022/10/19 16:08:29;;;;;;;;;;;;;;;;;;5042382;28;19966;-62
2022/10/19 16:10:54;;;;;;;;;;;;;;;;;;5043775;28;20015;-63
2022/10/19 16:13:19;;;;;;;;;;;;;;;;;;5042208;28;19921;-62
2022/10/19 16:15:45;;;;;;;;;;;;;;;;;;5042702;28;19916;-63
2022/10/19 16:18:10;;;;;;;;;;;;;;;;;;5041906;28;19923;-63
2022/10/19 16:20:36;;;;;;;;;;;;;;;;;;5042596;28;20487;-62
2022/10/19 16:23:01;;;;;;;;;;;;;;;;;;5043989;28;19926;-62
2022/10/19 16:25:26;;;;;;;;;;;;;;;;;;5035557;28;19936;-62
2022/10/19 16:27:51;;;;;;;;;;;;;;;;;;5040655;28;19913;-63
2022/10/19 16:30:17;;;;;;;;;;;;;;;;;;5041437;28;19924;-62